Harborcreek, Pennsylvania
Current Conditions -  °F | °C
As of 9:51 PM on Friday 28 Nov 2014 (Local Time) from KERI Reporting Station
Overcast Overcast  
Wind Chill: 17°   Ceiling: 5500
Heat Index: 26°   Visibility: 9mi
Dew Point: 14°   Wind: 9mph
Humidity: 60%   Direction: 170°S
Pressure: 30.19"   Gusts: NA
Location:  42.17°N, 79.95°W
Report Text: KERI 290251Z 17008KT 9SM BKN055 OVC070 M03/M10 A3019 RMK AO2 SLP233 T10331100 56012
Loading
Personal Weather Stations






























Interactive Weather Map New forecast layout! Learn more

10-Day Weather Forecast

Advertisements
Track Severe Weather on mobile